Time;durP1;ratioP1;P1;durP2;ratioP2;P2;SDS_P1;SDS_P2;PMS_P1;PMS_P2;Temp;Humidity;BMP_temperature;BMP_pressure;BME280_temperature;BME280_humidity;BME280_pressure;Samples;Min_cycle;Max_cycle;Signal;HPM_P1;HPM_P2
2023/08/19 00:01:12;;;;;;;5.68;3.70;;;25.90;55.90;;;;;;5000400;28;20417;-91
2023/08/19 00:03:39;;;;;;;6.53;3.35;;;25.90;55.90;;;;;;5001892;28;20077;-92
2023/08/19 00:06:08;;;;;;;7.93;3.63;;;25.80;55.90;;;;;;5001572;28;20053;-92
2023/08/19 00:08:36;;;;;;;7.65;3.22;;;25.80;55.90;;;;;;5000834;28;21268;-91
2023/08/19 00:11:04;;;;;;;7.82;3.63;;;25.80;55.90;;;;;;5000500;28;20053;-92
2023/08/19 00:13:32;;;;;;;6.05;3.33;;;25.80;56.00;;;;;;5001579;28;20053;-91
2023/08/19 00:16:00;;;;;;;7.90;3.28;;;25.80;56.00;;;;;;5001859;28;20381;-92
2023/08/19 00:18:28;;;;;;;8.65;3.38;;;25.70;56.00;;;;;;5000346;28;20509;-92
2023/08/19 00:20:56;;;;;;;8.57;3.60;;;25.70;56.00;;;;;;5001208;28;20049;-91
2023/08/19 00:23:25;;;;;;;8.00;3.20;;;25.70;56.00;;;;;;5001329;28;20053;-91
2023/08/19 00:25:52;;;;;;;8.52;3.88;;;25.70;56.50;;;;;;5000865;28;20060;-91
2023/08/19 00:28:20;;;;;;;7.90;3.85;;;25.60;56.00;;;;;;4999452;28;20332;-91
2023/08/19 00:30:47;;;;;;;6.47;3.10;;;25.60;56.00;;;;;;4999659;28;20068;-91
2023/08/19 00:33:16;;;;;;;9.38;3.70;;;25.60;56.10;;;;;;5001622;28;20387;-91
2023/08/19 00:35:45;;;;;;;7.15;3.40;;;25.60;56.10;;;;;;5008723;28;20050;-92
2023/08/19 00:38:12;;;;;;;8.43;4.07;;;25.50;56.10;;;;;;5002095;28;20054;-90
2023/08/19 00:40:40;;;;;;;6.28;3.42;;;25.50;56.10;;;;;;5002229;28;20517;-91
2023/08/19 00:43:07;;;;;;;8.32;3.50;;;25.50;56.20;;;;;;5001109;28;20060;-92
2023/08/19 00:45:37;;;;;;;8.43;3.85;;;25.50;56.20;;;;;;5000044;28;20061;-88
2023/08/19 00:48:06;;;;;;;7.25;3.55;;;25.50;56.20;;;;;;4998349;28;20486;-89
2023/08/19 00:50:34;;;;;;;8.45;3.85;;;25.50;56.30;;;;;;4997900;28;20494;-89
2023/08/19 00:53:03;;;;;;;11.23;3.65;;;25.40;56.30;;;;;;5000221;28;20061;-91
2023/08/19 00:55:30;;;;;;;6.18;3.67;;;25.50;56.40;;;;;;5002093;28;20054;-88
2023/08/19 00:58:01;;;;;;;11.13;3.92;;;25.40;56.30;;;;;;4997803;28;20474;-89
2023/08/19 01:00:31;;;;;;;6.22;3.28;;;25.40;56.30;;;;;;5000300;28;20050;-91
2023/08/19 01:02:58;;;;;;;7.07;3.33;;;25.40;56.30;;;;;;5053172;22;20028;-50
2023/08/19 01:05:41;;;;;;;8.88;4.40;;;25.40;56.30;;;;;;5058966;28;20048;-52
2023/08/19 01:08:16;;;;;;;6.00;3.70;;;25.30;56.20;;;;;;5058196;28;20045;-46
2023/08/19 01:10:51;;;;;;;7.07;3.80;;;25.40;56.40;;;;;;5058470;28;20055;-49
2023/08/19 01:13:25;;;;;;;4.70;3.08;;;25.30;56.30;;;;;;5055371;28;20072;-46
2023/08/19 01:15:56;;;;;;;7.90;3.70;;;25.30;56.20;;;;;;5058809;28;20048;-48
2023/08/19 01:18:24;;;;;;;4.60;3.50;;;25.30;56.30;;;;;;5060853;28;20056;-52
2023/08/19 01:20:54;;;;;;;7.85;3.10;;;25.20;56.20;;;;;;5061467;28;20970;-46
2023/08/19 01:23:30;;;;;;;4.82;2.97;;;25.20;56.30;;;;;;5062827;28;20052;-50
2023/08/19 01:25:59;;;;;;;6.75;3.33;;;25.20;56.30;;;;;;5063613;28;20045;-49
2023/08/19 01:28:27;;;;;;;5.55;3.03;;;25.20;56.40;;;;;;5060498;28;20052;-47
2023/08/19 01:30:54;;;;;;;4.43;2.72;;;25.20;56.40;;;;;;5059551;28;20499;-54
2023/08/19 01:33:22;;;;;;;7.47;2.97;;;25.20;56.50;;;;;;5062384;28;20056;-51
2023/08/19 01:35:57;;;;;;;5.95;3.45;;;25.20;56.50;;;;;;5061838;28;20403;-50
2023/08/19 01:38:36;;;;;;;5.68;3.08;;;25.20;56.50;;;;;;5060066;28;20048;-53
2023/08/19 01:41:05;;;;;;;4.20;3.20;;;25.20;56.50;;;;;;5058488;28;20056;-46
2023/08/19 01:43:32;;;;;;;5.35;3.30;;;25.20;56.60;;;;;;5061230;28;20053;-53
2023/08/19 01:46:00;;;;;;;6.57;3.65;;;25.20;56.60;;;;;;5060609;28;20052;-48
2023/08/19 01:48:27;;;;;;;6.68;3.03;;;25.20;56.70;;;;;;5062450;28;20063;-48
2023/08/19 01:50:54;;;;;;;9.60;3.70;;;25.20;56.70;;;;;;5058517;28;20496;-48
2023/08/19 01:53:22;;;;;;;8.50;4.00;;;25.20;56.80;;;;;;5061742;28;20048;-51
2023/08/19 01:55:49;;;;;;;7.53;3.13;;;25.20;56.80;;;;;;5061967;28;20504;-49
2023/08/19 01:58:17;;;;;;;5.57;3.30;;;25.20;56.80;;;;;;5059177;28;20063;-54
2023/08/19 02:00:46;;;;;;;5.93;3.15;;;25.20;56.80;;;;;;5059411;28;20056;-53
2023/08/19 02:03:13;;;;;;;7.05;3.13;;;25.20;56.80;;;;;;5060968;28;20060;-49
2023/08/19 02:05:40;;;;;;;5.72;3.40;;;25.20;56.80;;;;;;5062544;28;20053;-48
2023/08/19 02:08:07;;;;;;;6.93;3.15;;;25.10;56.80;;;;;;5054702;28;20416;-50
2023/08/19 02:10:35;;;;;;;4.10;2.97;;;25.10;56.70;;;;;;5052421;28;20526;-49
2023/08/19 02:13:02;;;;;;;7.47;3.13;;;25.20;56.80;;;;;;5056012;28;20074;-55
2023/08/19 02:15:31;;;;;;;8.52;3.10;;;25.10;56.70;;;;;;5058264;28;20056;-46
2023/08/19 02:17:58;;;;;;;7.53;3.38;;;25.10;56.70;;;;;;5056049;28;20389;-47
2023/08/19 02:20:25;;;;;;;8.65;3.67;;;25.10;56.70;;;;;;5060568;28;20056;-52
2023/08/19 02:22:53;;;;;;;5.25;3.15;;;25.10;56.70;;;;;;5060328;28;20055;-50
2023/08/19 02:25:21;;;;;;;6.35;3.15;;;25.10;56.60;;;;;;5061387;28;20056;-48
2023/08/19 02:27:49;;;;;;;6.90;3.53;;;25.10;56.70;;;;;;5059183;28;20061;-49
2023/08/19 02:30:16;;;;;;;10.70;3.47;;;25.00;56.60;;;;;;5061765;28;20057;-51
2023/08/19 02:32:44;;;;;;;4.65;3.08;;;25.00;56.60;;;;;;5058279;28;20048;-46
2023/08/19 02:35:12;;;;;;;5.18;3.13;;;25.00;56.70;;;;;;5061089;28;20055;-47
2023/08/19 02:37:39;;;;;;;4.13;3.38;;;25.00;56.60;;;;;;5059830;28;20048;-52
2023/08/19 02:40:09;;;;;;;8.70;3.08;;;25.00;56.70;;;;;;5061781;28;20048;-48
2023/08/19 02:42:36;;;;;;;4.03;2.90;;;25.00;56.70;;;;;;5060658;28;20044;-48
2023/08/19 02:45:04;;;;;;;8.30;3.33;;;25.00;56.70;;;;;;5060406;28;20056;-49
2023/08/19 02:47:31;;;;;;;5.32;3.30;;;24.90;56.70;;;;;;5057622;28;21490;-51
2023/08/19 02:50:00;;;;;;;8.77;3.40;;;25.00;56.80;;;;;;5060118;28;20076;-52
2023/08/19 02:52:27;;;;;;;7.43;3.53;;;24.90;56.80;;;;;;5059140;28;20049;-46
2023/08/19 02:54:55;;;;;;;6.70;3.20;;;24.90;56.70;;;;;;5061418;28;21748;-51
2023/08/19 02:57:22;;;;;;;5.47;3.38;;;25.00;56.80;;;;;;5057343;28;20063;-49
2023/08/19 02:59:50;;;;;;;8.15;3.58;;;24.90;56.80;;;;;;5060974;28;20059;-47
2023/08/19 03:02:17;;;;;;;10.02;3.60;;;24.90;56.70;;;;;;5057709;28;20040;-50
2023/08/19 03:04:44;;;;;;;8.18;3.45;;;24.90;56.70;;;;;;5056394;28;20044;-55
2023/08/19 03:07:13;;;;;;;4.05;2.72;;;24.90;56.80;;;;;;5059262;28;20056;-52
2023/08/19 03:09:44;;;;;;;7.43;3.00;;;24.90;56.80;;;;;;5058908;28;20631;-49
2023/08/19 03:12:11;;;;;;;7.80;3.35;;;24.90;56.80;;;;;;5056821;28;20052;-46
2023/08/19 03:14:38;;;;;;;5.90;3.13;;;24.90;56.80;;;;;;5060227;28;20057;-54
2023/08/19 03:17:05;;;;;;;8.13;3.20;;;24.90;56.80;;;;;;5058206;28;20057;-45
2023/08/19 03:19:32;;;;;;;6.53;2.75;;;24.80;56.80;;;;;;5057080;28;20056;-48
2023/08/19 03:22:00;;;;;;;3.90;3.15;;;24.90;56.90;;;;;;5060237;28;20053;-51
2023/08/19 03:24:28;;;;;;;4.93;2.90;;;24.90;56.90;;;;;;5059427;28;20052;-48
2023/08/19 03:26:55;;;;;;;3.92;2.88;;;24.80;56.80;;;;;;5058294;28;20419;-49
2023/08/19 03:29:24;;;;;;;6.55;3.08;;;24.80;56.80;;;;;;5060021;28;20408;-49
2023/08/19 03:31:52;;;;;;;4.40;2.80;;;24.80;56.90;;;;;;5058380;28;20049;-52
2023/08/19 03:34:19;;;;;;;3.75;3.00;;;24.80;56.80;;;;;;5059269;28;20487;-48
2023/08/19 03:36:47;;;;;;;6.72;3.50;;;24.80;56.70;;;;;;5059427;28;20055;-52
2023/08/19 03:39:15;;;;;;;7.07;2.88;;;24.80;56.70;;;;;;5059407;28;20074;-49
2023/08/19 03:41:43;;;;;;;6.25;3.17;;;24.80;56.80;;;;;;5057221;28;20049;-46
2023/08/19 03:44:11;;;;;;;8.32;3.58;;;24.80;56.80;;;;;;5059918;28;20060;-51
2023/08/19 03:46:39;;;;;;;7.85;3.08;;;24.80;56.90;;;;;;5057929;28;20053;-51
2023/08/19 03:49:06;;;;;;;6.03;3.08;;;24.80;56.90;;;;;;5055259;28;20060;-46
2023/08/19 03:51:33;;;;;;;7.90;3.40;;;24.70;56.90;;;;;;5050335;28;20055;-51
2023/08/19 03:54:01;;;;;;;9.15;3.35;;;24.70;56.80;;;;;;5059134;28;20045;-47
2023/08/19 03:56:28;;;;;;;6.03;2.75;;;24.70;56.80;;;;;;5056857;28;20408;-53
2023/08/19 03:58:56;;;;;;;8.30;3.08;;;24.80;56.90;;;;;;5057338;28;20508;-46
2023/08/19 04:01:24;;;;;;;4.10;2.63;;;24.80;56.90;;;;;;5058857;28;20523;-48
2023/08/19 04:03:51;;;;;;;4.45;2.70;;;24.80;56.80;;;;;;5057516;28;20052;-49
2023/08/19 04:06:18;;;;;;;3.60;2.95;;;24.80;56.90;;;;;;5057861;28;20052;-53
2023/08/19 04:08:45;;;;;;;4.80;2.67;;;24.70;56.80;;;;;;5057504;28;20049;-52
2023/08/19 04:11:13;;;;;;;9.00;3.25;;;24.70;56.90;;;;;;5055157;28;20056;-54
2023/08/19 04:13:40;;;;;;;6.65;3.30;;;24.70;56.90;;;;;;5056810;28;20056;-49
2023/08/19 04:16:09;;;;;;;4.43;2.55;;;24.70;56.90;;;;;;5055705;28;20400;-50
2023/08/19 04:18:36;;;;;;;6.40;2.83;;;24.70;56.90;;;;;;5056576;28;20075;-47
2023/08/19 04:21:05;;;;;;;6.05;3.30;;;24.70;56.90;;;;;;5057467;28;20057;-47
2023/08/19 04:23:32;;;;;;;4.32;2.97;;;24.70;56.90;;;;;;5059820;28;20056;-50
2023/08/19 04:25:59;;;;;;;4.50;2.90;;;24.70;56.90;;;;;;5058410;28;20484;-46
2023/08/19 04:28:27;;;;;;;7.05;2.58;;;24.70;56.90;;;;;;5056908;28;20052;-47
2023/08/19 04:31:01;;;;;;;9.07;3.50;;;24.70;56.90;;;;;;5055188;28;20065;-46
2023/08/19 04:33:33;;;;;;;4.78;2.90;;;24.70;56.90;;;;;;5053824;28;20056;-54
2023/08/19 04:36:02;;;;;;;5.80;3.38;;;24.70;56.90;;;;;;5059096;28;20056;-47
2023/08/19 04:38:29;;;;;;;9.57;3.55;;;24.70;56.90;;;;;;5055182;28;20048;-51
2023/08/19 04:40:57;;;;;;;3.95;2.55;;;24.70;56.90;;;;;;5058869;28;20072;-50
2023/08/19 04:43:24;;;;;;;5.22;2.70;;;24.70;56.80;;;;;;5057601;28;20052;-46
2023/08/19 04:45:53;;;;;;;7.30;2.80;;;24.70;56.90;;;;;;5057144;28;20460;-48
2023/08/19 04:48:21;;;;;;;7.15;3.05;;;24.70;56.90;;;;;;5058460;28;20056;-49
2023/08/19 04:50:50;;;;;;;4.88;2.55;;;24.70;56.90;;;;;;5058733;28;20415;-54
2023/08/19 04:53:17;;;;;;;3.75;2.40;;;24.70;56.90;;;;;;5062541;28;20415;-46
2023/08/19 04:55:44;;;;;;;4.45;2.70;;;24.70;56.90;;;;;;5058532;28;20061;-51
2023/08/19 04:58:11;;;;;;;5.18;2.53;;;24.70;56.90;;;;;;5059213;28;20048;-47
2023/08/19 05:00:41;;;;;;;3.47;2.50;;;24.70;57.00;;;;;;5059519;28;20053;-46
2023/08/19 05:03:08;;;;;;;5.28;2.80;;;24.70;56.90;;;;;;5060182;28;20492;-47
2023/08/19 05:05:35;;;;;;;6.07;2.90;;;24.70;56.90;;;;;;5061727;28;20055;-47
2023/08/19 05:08:04;;;;;;;4.78;2.60;;;24.70;56.90;;;;;;5060196;28;20055;-47
2023/08/19 05:10:32;;;;;;;5.72;2.58;;;24.70;56.90;;;;;;5062176;28;20491;-52
2023/08/19 05:12:59;;;;;;;7.28;2.40;;;24.70;56.80;;;;;;5060573;28;20063;-48
2023/08/19 05:15:27;;;;;;;5.00;2.97;;;24.70;56.90;;;;;;5063214;28;20389;-46
2023/08/19 05:17:54;;;;;;;7.45;3.10;;;24.70;56.90;;;;;;5060954;28;20408;-48
2023/08/19 05:20:21;;;;;;;5.00;2.97;;;24.70;56.90;;;;;;5061819;28;20060;-44
2023/08/19 05:22:48;;;;;;;4.40;2.72;;;24.70;56.90;;;;;;5061132;28;20048;-48
2023/08/19 05:25:17;;;;;;;3.90;2.70;;;24.70;57.00;;;;;;5060332;28;20059;-48
2023/08/19 05:27:44;;;;;;;6.95;2.58;;;24.70;57.00;;;;;;5059361;28;20044;-50
2023/08/19 05:30:12;;;;;;;6.70;3.00;;;24.70;57.00;;;;;;5060842;28;20052;-48
2023/08/19 05:32:40;;;;;;;6.57;3.10;;;24.70;57.00;;;;;;5063268;28;20484;-46
2023/08/19 05:35:08;;;;;;;3.80;2.90;;;24.70;57.00;;;;;;5060955;28;20067;-47
2023/08/19 05:37:35;;;;;;;5.72;2.90;;;24.70;57.00;;;;;;5063012;28;20443;-51
2023/08/19 05:40:04;;;;;;;7.60;3.03;;;24.70;57.00;;;;;;5056915;28;20060;-50
2023/08/19 05:42:33;;;;;;;7.57;2.45;;;24.80;57.10;;;;;;5057277;28;20515;-44
2023/08/19 05:45:00;;;;;;;4.82;2.78;;;24.80;57.20;;;;;;5061573;28;20063;-55
2023/08/19 05:47:29;;;;;;;7.50;3.17;;;24.80;57.10;;;;;;5056771;28;20496;-54
2023/08/19 05:49:56;;;;;;;5.85;2.85;;;24.80;57.10;;;;;;5060940;28;20373;-54
2023/08/19 05:52:23;;;;;;;4.35;2.75;;;24.80;57.10;;;;;;5060345;28;20048;-55
2023/08/19 05:54:51;;;;;;;5.50;2.70;;;24.80;57.20;;;;;;5059788;28;20040;-52
2023/08/19 05:57:19;;;;;;;4.32;2.45;;;24.90;57.20;;;;;;5060078;28;20497;-54
2023/08/19 05:59:47;;;;;;;3.63;2.63;;;24.90;57.30;;;;;;5060345;28;20049;-53
2023/08/19 06:02:15;;;;;;;3.95;2.85;;;24.90;57.30;;;;;;5056520;28;20453;-55
2023/08/19 06:04:43;;;;;;;5.05;2.63;;;25.00;57.30;;;;;;5058415;28;20052;-55
2023/08/19 06:07:11;;;;;;;11.27;3.53;;;25.00;57.20;;;;;;5060155;28;20052;-54
2023/08/19 06:09:38;;;;;;;5.13;2.58;;;25.10;57.10;;;;;;5057448;28;20063;-53
2023/08/19 06:12:06;;;;;;;2.83;2.40;;;25.10;57.00;;;;;;5059438;28;20048;-55
2023/08/19 06:14:33;;;;;;;7.55;2.50;;;25.10;57.00;;;;;;5058321;28;20056;-54
2023/08/19 06:17:02;;;;;;;9.95;3.38;;;25.20;57.10;;;;;;5061849;28;20056;-56
2023/08/19 06:19:29;;;;;;;3.55;3.10;;;25.20;57.10;;;;;;5060608;28;20075;-51
2023/08/19 06:25:18;;;;;;;6.68;3.50;;;25.30;57.10;;;;;;5060257;28;20504;-55
2023/08/19 06:27:45;;;;;;;3.67;2.30;;;25.40;57.20;;;;;;5054929;28;20056;-55
2023/08/19 06:30:14;;;;;;;6.53;2.70;;;25.40;57.30;;;;;;5056122;28;20052;-56
2023/08/19 06:32:46;;;;;;;5.80;2.70;;;25.50;57.40;;;;;;5058301;28;20504;-53
2023/08/19 06:35:14;;;;;;;5.00;2.60;;;25.50;57.20;;;;;;5058158;28;20059;-54
2023/08/19 06:37:47;;;;;;;7.28;2.95;;;25.60;57.30;;;;;;5056748;28;20067;-56
2023/08/19 06:40:20;;;;;;;4.67;2.63;;;25.60;57.10;;;;;;5063533;28;20064;-54
2023/08/19 06:42:50;;;;;;;6.20;2.40;;;25.60;57.00;;;;;;5060706;28;20512;-55
2023/08/19 06:45:20;;;;;;;4.15;3.08;;;25.70;57.00;;;;;;5062005;28;20495;-55
2023/08/19 06:47:56;;;;;;;10.70;6.60;;;25.80;57.00;;;;;;5062037;28;20048;-54
2023/08/19 06:50:24;;;;;;;5.55;3.47;;;25.80;56.90;;;;;;5062905;28;20056;-53
2023/08/19 06:52:52;;;;;;;7.80;2.97;;;25.80;56.90;;;;;;5060144;28;20056;-56
2023/08/19 06:55:20;;;;;;;4.60;2.67;;;25.90;56.90;;;;;;5062428;28;20059;-48
2023/08/19 06:57:57;;;;;;;4.72;2.58;;;25.90;56.80;;;;;;5059553;28;20404;-49
2023/08/19 07:00:25;;;;;;;3.42;2.15;;;25.90;56.80;;;;;;5060747;28;21459;-49
2023/08/19 07:02:54;;;;;;;6.03;2.60;;;25.90;56.80;;;;;;5061999;28;20060;-46
2023/08/19 07:05:24;;;;;;;7.28;2.75;;;26.00;56.90;;;;;;5061055;28;20064;-50
2023/08/19 07:07:53;;;;;;;4.28;2.45;;;26.00;56.90;;;;;;5061878;28;20639;-48
2023/08/19 07:10:22;;;;;;;6.15;2.17;;;26.00;56.80;;;;;;5060734;28;20059;-47
2023/08/19 07:12:50;;;;;;;4.97;2.60;;;26.10;56.80;;;;;;5058579;28;20438;-46
2023/08/19 07:15:18;;;;;;;3.60;2.55;;;26.10;56.70;;;;;;5062243;28;20060;-46
2023/08/19 07:17:48;;;;;;;4.32;2.40;;;26.10;56.70;;;;;;5059521;28;20531;-50
2023/08/19 07:20:18;;;;;;;9.30;2.70;;;26.20;56.80;;;;;;5058242;28;20068;-51
2023/08/19 07:22:48;;;;;;;6.10;2.35;;;26.20;57.30;;;;;;5060482;28;20500;-49
2023/08/19 07:25:16;;;;;;;3.63;2.55;;;26.20;56.80;;;;;;5059984;28;20071;-49
2023/08/19 07:27:44;;;;;;;4.47;2.65;;;26.20;56.80;;;;;;5058618;28;20052;-48
2023/08/19 07:30:13;;;;;;;3.15;2.47;;;26.20;56.90;;;;;;5059713;28;20495;-46
2023/08/19 07:32:40;;;;;;;5.53;2.90;;;26.30;56.80;;;;;;5061646;28;20052;-48
2023/08/19 07:35:08;;;;;;;4.97;2.88;;;26.30;56.70;;;;;;5062095;28;20456;-46
2023/08/19 07:37:37;;;;;;;4.90;2.15;;;26.30;57.20;;;;;;5061063;28;21110;-50
2023/08/19 07:40:09;;;;;;;3.60;2.65;;;26.30;56.60;;;;;;5059370;28;20044;-48
2023/08/19 07:42:36;;;;;;;5.25;2.58;;;26.40;56.60;;;;;;5060184;28;20523;-44
2023/08/19 07:45:05;;;;;;;6.63;3.15;;;26.40;56.60;;;;;;5061173;28;20407;-45
2023/08/19 07:47:32;;;;;;;6.65;3.05;;;26.40;56.50;;;;;;5060276;28;20052;-54
2023/08/19 07:49:59;;;;;;;5.00;2.40;;;26.40;56.50;;;;;;5061766;28;20056;-47
2023/08/19 07:52:26;;;;;;;4.88;2.80;;;26.40;56.50;;;;;;5061578;28;20519;-46
2023/08/19 07:54:56;;;;;;;8.27;2.70;;;26.40;56.40;;;;;;5060084;28;20056;-45
2023/08/19 07:57:23;;;;;;;5.60;3.00;;;26.40;56.40;;;;;;5059768;28;20056;-50
2023/08/19 07:59:50;;;;;;;5.38;2.50;;;26.40;56.30;;;;;;5060837;28;20052;-51
2023/08/19 08:02:18;;;;;;;5.72;2.70;;;26.40;56.20;;;;;;5058634;28;20069;-49
2023/08/19 08:04:45;;;;;;;5.85;2.63;;;26.40;56.10;;;;;;5061708;28;20048;-49
2023/08/19 08:07:12;;;;;;;3.95;2.40;;;26.40;56.20;;;;;;5061283;28;20060;-53
2023/08/19 08:09:41;;;;;;;3.38;2.47;;;26.50;56.40;;;;;;5061536;28;20048;-49
2023/08/19 08:12:10;;;;;;;11.23;3.00;;;26.40;56.30;;;;;;5057790;28;20049;-45
2023/08/19 08:14:37;;;;;;;4.97;2.90;;;26.50;56.40;;;;;;5060544;28;20042;-46
2023/08/19 08:17:04;;;;;;;3.03;2.33;;;26.50;56.50;;;;;;5061925;28;20048;-46
2023/08/19 08:19:32;;;;;;;4.38;2.35;;;26.50;56.50;;;;;;5061050;28;20061;-46
2023/08/19 08:21:59;;;;;;;4.22;2.75;;;26.50;56.50;;;;;;5060077;28;20048;-51
2023/08/19 08:24:26;;;;;;;6.22;2.45;;;26.50;56.50;;;;;;5059563;28;20400;-49
2023/08/19 08:26:54;;;;;;;4.30;2.67;;;26.60;56.50;;;;;;5057511;28;20397;-46
2023/08/19 08:29:23;;;;;;;5.72;2.50;;;26.60;56.60;;;;;;5060364;28;20415;-46
2023/08/19 08:31:51;;;;;;;9.15;3.13;;;26.60;56.60;;;;;;5059570;28;20076;-47
2023/08/19 08:34:18;;;;;;;4.80;2.50;;;26.70;56.70;;;;;;5061140;28;20056;-47
2023/08/19 08:36:45;;;;;;;5.78;2.42;;;26.70;56.60;;;;;;5060917;28;20515;-46
2023/08/19 08:39:14;;;;;;;4.65;2.45;;;26.80;57.00;;;;;;5060148;28;20063;-47
2023/08/19 08:41:41;;;;;;;4.45;2.30;;;26.80;56.30;;;;;;5057322;28;20052;-48
2023/08/19 08:44:09;;;;;;;5.10;2.75;;;26.80;56.30;;;;;;5061406;28;20049;-49
2023/08/19 08:46:40;;;;;;;3.78;2.53;;;26.90;56.30;;;;;;5061304;28;20408;-48
2023/08/19 08:49:08;;;;;;;3.85;2.63;;;26.90;56.30;;;;;;5061076;28;20063;-47
2023/08/19 08:51:36;;;;;;;6.32;2.80;;;26.90;56.20;;;;;;5058663;28;20069;-51
2023/08/19 08:54:06;;;;;;;5.72;2.92;;;26.90;56.10;;;;;;5060571;28;20063;-49
2023/08/19 08:56:33;;;;;;;4.90;2.95;;;27.00;56.40;;;;;;5055681;28;20523;-51
2023/08/19 08:59:00;;;;;;;5.07;2.88;;;26.90;56.20;;;;;;5061796;28;20078;-50
2023/08/19 09:01:29;;;;;;;4.53;2.60;;;27.00;56.30;;;;;;5057650;28;20053;-51
2023/08/19 09:04:03;;;;;;;6.50;3.17;;;27.00;56.30;;;;;;5060616;28;20068;-49
2023/08/19 09:06:32;;;;;;;5.63;2.95;;;27.00;56.60;;;;;;5055302;28;20061;-51
2023/08/19 09:09:03;;;;;;;5.93;3.08;;;27.10;56.60;;;;;;5059811;28;20067;-50
2023/08/19 09:11:36;;;;;;;5.00;3.05;;;27.10;56.30;;;;;;5058423;28;20083;-50
2023/08/19 09:14:10;;;;;;;5.05;2.67;;;27.10;56.50;;;;;;5061520;28;20071;-47
2023/08/19 09:16:38;;;;;;;4.15;3.03;;;27.20;56.40;;;;;;5060379;28;20416;-53
2023/08/19 09:19:06;;;;;;;4.72;2.80;;;27.20;56.40;;;;;;5058094;28;20052;-55
2023/08/19 09:21:34;;;;;;;11.52;2.90;;;27.20;56.50;;;;;;5058021;28;20056;-56
2023/08/19 09:24:01;;;;;;;6.63;3.25;;;27.30;56.70;;;;;;5060545;28;20495;-56
2023/08/19 09:26:28;;;;;;;5.57;2.90;;;27.30;56.60;;;;;;5056458;28;20052;-56
2023/08/19 09:28:57;;;;;;;4.00;3.08;;;27.30;56.60;;;;;;5059095;28;20491;-57
2023/08/19 09:31:25;;;;;;;6.72;2.90;;;27.40;56.60;;;;;;5058257;28;20045;-55
2023/08/19 09:33:54;;;;;;;7.00;2.90;;;27.40;56.70;;;;;;5057389;28;20400;-51
2023/08/19 09:36:24;;;;;;;5.25;3.15;;;27.40;56.90;;;;;;5054950;28;20048;-56
2023/08/19 09:38:55;;;;;;;5.75;3.15;;;27.50;57.00;;;;;;5059346;28;20044;-53
2023/08/19 09:41:27;;;;;;;4.55;2.95;;;27.50;56.90;;;;;;5053866;28;20061;-54
2023/08/19 09:43:55;;;;;;;7.32;3.33;;;27.60;56.90;;;;;;5060392;28;20519;-55
2023/08/19 09:46:31;;;;;;;5.13;2.72;;;27.60;57.10;;;;;;5062260;28;20393;-55
2023/08/19 09:48:59;;;;;;;3.85;2.53;;;27.70;57.00;;;;;;5062828;28;20048;-54
2023/08/19 09:51:29;;;;;;;6.93;2.97;;;27.70;56.90;;;;;;5060471;28;20063;-56
2023/08/19 09:53:57;;;;;;;5.53;2.80;;;27.70;56.80;;;;;;5061962;28;20061;-56
2023/08/19 09:56:27;;;;;;;4.00;2.63;;;27.80;56.70;;;;;;5058192;28;20526;-56
2023/08/19 09:58:56;;;;;;;6.22;2.80;;;27.80;56.60;;;;;;5059410;28;20056;-56
2023/08/19 10:01:25;;;;;;;5.20;2.88;;;27.90;56.40;;;;;;5060132;28;20061;-56
2023/08/19 10:03:53;;;;;;;5.70;2.75;;;27.80;56.30;;;;;;5060038;28;20056;-53
2023/08/19 10:06:25;;;;;;;3.00;2.60;;;27.90;56.30;;;;;;5060856;28;20052;-54
2023/08/19 10:09:00;;;;;;;4.32;3.10;;;27.90;56.20;;;;;;5061068;28;20052;-55
2023/08/19 10:11:30;;;;;;;7.80;3.00;;;27.90;56.10;;;;;;5058954;28;21081;-54
2023/08/19 10:14:02;;;;;;;4.10;2.90;;;28.00;55.90;;;;;;5062505;28;20057;-55
2023/08/19 10:16:32;;;;;;;10.98;5.95;;;28.00;56.00;;;;;;5060611;28;20111;-55
2023/08/19 10:19:00;;;;;;;6.63;3.60;;;28.00;56.20;;;;;;5061454;28;20056;-55
2023/08/19 10:21:30;;;;;;;6.15;3.10;;;28.00;56.30;;;;;;5060158;28;20065;-56
2023/08/19 10:23:59;;;;;;;5.28;2.67;;;28.10;56.40;;;;;;5060786;28;20044;-56
2023/08/19 10:26:27;;;;;;;4.60;2.65;;;28.10;56.30;;;;;;5060208;28;20048;-49
2023/08/19 10:29:05;;;;;;;6.35;3.22;;;28.10;56.40;;;;;;5060522;28;20052;-49
2023/08/19 10:31:32;;;;;;;3.45;2.83;;;28.20;56.60;;;;;;5060441;28;20068;-53
2023/08/19 10:34:00;;;;;;;5.63;3.10;;;28.30;56.50;;;;;;5057887;28;20049;-48
2023/08/19 10:36:29;;;;;;;7.43;2.78;;;28.30;56.50;;;;;;5059714;28;20491;-53
2023/08/19 10:39:00;;;;;;;5.65;2.90;;;28.40;56.60;;;;;;5057007;28;20060;-47
2023/08/19 10:41:29;;;;;;;6.07;2.92;;;28.40;56.60;;;;;;5058266;28;20049;-49
2023/08/19 10:43:59;;;;;;;6.05;2.83;;;28.50;56.40;;;;;;5061991;28;20055;-48
2023/08/19 10:46:28;;;;;;;5.88;2.97;;;28.50;56.20;;;;;;5060404;28;20059;-48
2023/08/19 10:48:55;;;;;;;10.70;2.90;;;28.60;56.20;;;;;;5057333;28;20400;-47
2023/08/19 10:51:46;;;;;;;4.95;3.00;;;28.60;56.20;;;;;;5054478;28;20060;-46
2023/08/19 10:54:15;;;;;;;4.95;2.78;;;28.70;56.20;;;;;;5056832;28;20055;-49
2023/08/19 10:56:52;;;;;;;6.13;3.03;;;28.70;56.20;;;;;;5054601;28;20057;-47
2023/08/19 10:59:20;;;;;;;4.55;2.85;;;28.80;56.50;;;;;;5056313;28;20051;-46
2023/08/19 11:01:48;;;;;;;7.22;3.47;;;28.80;56.50;;;;;;5059552;28;20435;-52
2023/08/19 11:04:16;;;;;;;8.07;3.15;;;28.80;56.40;;;;;;5059701;28;20067;-52
2023/08/19 11:06:43;;;;;;;3.78;2.75;;;28.90;56.10;;;;;;5053003;28;20500;-51
2023/08/19 11:09:10;;;;;;;3.47;2.80;;;29.00;56.20;;;;;;5058227;28;20057;-50
2023/08/19 11:11:40;;;;;;;4.88;2.80;;;29.00;55.90;;;;;;5055941;28;20602;-51
2023/08/19 11:14:07;;;;;;;4.00;2.95;;;29.10;55.90;;;;;;5059168;28;20102;-46
2023/08/19 11:16:35;;;;;;;7.50;3.38;;;29.10;55.70;;;;;;5059430;28;20123;-54
2023/08/19 11:19:02;;;;;;;6.13;3.00;;;29.20;55.60;;;;;;5061143;28;20475;-53
2023/08/19 11:21:30;;;;;;;6.35;3.10;;;29.20;55.70;;;;;;5058507;28;20056;-48
2023/08/19 11:23:58;;;;;;;4.85;3.10;;;29.30;56.00;;;;;;5060304;28;20480;-52
2023/08/19 11:26:26;;;;;;;6.55;3.63;;;29.30;55.90;;;;;;5060342;28;20519;-46
2023/08/19 11:28:54;;;;;;;7.88;3.58;;;29.40;55.00;;;;;;5054853;28;20079;-51
2023/08/19 11:31:22;;;;;;;4.88;3.38;;;29.50;54.20;;;;;;5055445;28;20052;-48
2023/08/19 11:33:49;;;;;;;7.22;3.33;;;29.50;54.10;;;;;;5059926;28;20048;-48
2023/08/19 11:36:17;;;;;;;4.63;3.22;;;29.60;53.60;;;;;;5058990;28;20052;-50
2023/08/19 11:38:44;;;;;;;5.88;3.65;;;29.60;53.10;;;;;;5058324;28;20049;-50
2023/08/19 11:41:11;;;;;;;4.43;3.15;;;29.70;53.20;;;;;;5056883;28;20059;-49
2023/08/19 11:43:46;;;;;;;8.07;3.88;;;29.70;52.70;;;;;;5060104;28;20060;-48
2023/08/19 11:46:14;;;;;;;6.20;3.10;;;29.80;52.80;;;;;;5055837;28;20045;-54
2023/08/19 11:48:42;;;;;;;6.72;3.63;;;29.90;52.90;;;;;;5056665;28;20056;-52
2023/08/19 11:51:13;;;;;;;5.80;3.20;;;29.90;52.10;;;;;;5057956;28;20064;-49
2023/08/19 11:53:48;;;;;;;6.05;3.65;;;30.00;52.00;;;;;;5052321;28;20079;-50
2023/08/19 11:56:16;;;;;;;6.13;3.58;;;30.10;52.40;;;;;;5040957;28;20055;-49
2023/08/19 11:58:48;;;;;;;7.40;3.00;;;30.10;52.30;;;;;;5055130;28;20049;-48
2023/08/19 12:01:17;;;;;;;5.30;3.08;;;30.20;51.80;;;;;;5057854;28;20061;-49
2023/08/19 12:03:46;;;;;;;5.95;3.75;;;30.30;51.60;;;;;;5059237;28;20052;-50
2023/08/19 12:06:14;;;;;;;9.70;4.97;;;30.30;51.70;;;;;;5057044;28;20527;-49
2023/08/19 12:08:43;;;;;;;6.47;3.90;;;30.40;51.50;;;;;;5056952;28;20067;-50
2023/08/19 12:11:11;;;;;;;4.93;3.38;;;30.40;51.70;;;;;;5053423;28;20052;-47
2023/08/19 12:13:39;;;;;;;10.27;3.90;;;30.50;51.30;;;;;;5056236;28;20048;-50
2023/08/19 12:16:08;;;;;;;7.05;3.70;;;30.50;51.50;;;;;;5057200;28;20059;-49
2023/08/19 12:18:37;;;;;;;6.13;3.53;;;30.50;51.70;;;;;;5057777;28;20056;-46
2023/08/19 12:21:04;;;;;;;8.00;3.80;;;30.60;51.30;;;;;;5056051;28;20063;-49
2023/08/19 12:23:32;;;;;;;10.52;3.92;;;30.60;51.00;;;;;;5058977;28;20052;-54
2023/08/19 12:26:00;;;;;;;6.47;3.70;;;30.60;50.10;;;;;;5057498;28;20048;-48
2023/08/19 12:28:29;;;;;;;7.82;4.13;;;30.70;50.00;;;;;;5058747;28;20408;-52
2023/08/19 12:30:57;;;;;;;9.02;3.80;;;30.70;50.00;;;;;;5053987;28;20063;-49
2023/08/19 12:33:24;;;;;;;6.63;3.47;;;30.80;50.40;;;;;;5057934;28;20059;-45
2023/08/19 12:35:54;;;;;;;6.63;4.40;;;30.80;50.10;;;;;;5055460;28;20068;-51
2023/08/19 12:38:22;;;;;;;7.38;4.38;;;30.80;50.20;;;;;;5058093;28;20527;-50
2023/08/19 12:40:49;;;;;;;7.63;4.50;;;30.90;49.70;;;;;;5057509;28;20071;-48
2023/08/19 12:43:16;;;;;;;9.18;4.63;;;30.90;49.70;;;;;;5055205;28;20078;-52
2023/08/19 12:45:44;;;;;;;6.75;4.18;;;30.90;50.00;;;;;;5058621;28;20400;-57
2023/08/19 12:48:11;;;;;;;9.65;4.50;;;30.90;49.60;;;;;;5053586;28;20057;-57
2023/08/19 12:50:39;;;;;;;15.45;4.35;;;31.00;50.20;;;;;;5056292;28;20054;-56
2023/08/19 12:53:08;;;;;;;9.32;4.60;;;31.10;50.00;;;;;;5054617;28;20052;-65
2023/08/19 12:55:35;;;;;;;9.45;4.53;;;31.10;49.40;;;;;;5053824;28;20055;-60